Cotes De La Manche — FQBE — position and weather

sailwx.info

Track history (hours):
 
Tides and Currents Weather Stations Pressure Air Temp Water Temp Dewpoint Dewpoint Depression Visibility Wind Speed Wind Dir Waves Ship Positions

Cotes De La Manche

Last reported at 2016-Apr-30 08:33 UTC. Time now 2016-Apr-30 09:02 UTC.
Position N 49°29' E 000°02'.

Length 25 m; draft 3.7 m.

Type: Other ship. MMSI: 227091000.

Date/timePositionNaut miles runAvg speedWind from/ knotsBaromVisibWave heightAir tempDewpointWater temp
2016-Apr-30 08:33N 49°29' E 000°02'0 0.0
2016-Apr-30 07:33N 49°29' E 000°02'0 0.0
2016-Apr-30 06:33N 49°29' E 000°02'0 0.0
2016-Apr-30 05:33N 49°29' E 000°02'0 0.0
2016-Apr-30 04:33N 49°29' E 000°02'0 0.0
2016-Apr-30 03:33N 49°29' E 000°02'0 0.0
2016-Apr-30 02:33N 49°29' E 000°02'0 0.0
2016-Apr-30 01:33N 49°29' E 000°02'0 0.0
2016-Apr-30 00:33N 49°29' E 000°02'0 0.0
2016-Apr-29 23:33N 49°29' E 000°02'0 0.0
2016-Apr-29 22:34N 49°29' E 000°02'0 0.0
2016-Apr-29 21:33N 49°29' E 000°02'0 0.1
2016-Apr-29 20:33N 49°29' E 000°02'0 0.0
2016-Apr-29 19:33N 49°29' E 000°02'0 0.0
2016-Apr-29 18:33N 49°29' E 000°02'0 0.0
2016-Apr-29 17:33N 49°29' E 000°02'3 2.8
2016-Apr-29 16:34N 49°29' E 000°06'3 2.9
2016-Apr-29 15:34N 49°29' E 000°10'0 0.5
2016-Apr-29 14:34N 49°29' E 000°11'1 0.6
2016-Apr-29 13:33N 49°29' E 000°11'2 2.0
2016-Apr-29 12:33N 49°29' E 000°08'1 0.8
2016-Apr-29 11:32N 49°29' E 000°07'0 0.0
2016-Apr-29 10:32N 49°29' E 000°07'0 0.0
2016-Apr-29 09:32N 49°29' E 000°07'0 0.0
2016-Apr-29 08:32N 49°29' E 000°07'0 0.0
2016-Apr-29 07:32N 49°29' E 000°07'0 0.0
2016-Apr-29 06:32N 49°29' E 000°07'0 0.0
2016-Apr-29 05:32N 49°29' E 000°07'0 0.0
2016-Apr-29 04:32N 49°29' E 000°07'0 0.0
2016-Apr-29 03:32N 49°29' E 000°07'0 0.0
2016-Apr-29 02:32N 49°29' E 000°07'0 0.0
2016-Apr-29 01:32N 49°29' E 000°07'0 0.0
2016-Apr-29 00:32N 49°29' E 000°07'0 0.0
2016-Apr-28 23:32N 49°29' E 000°07'0 0.0
2016-Apr-28 22:32N 49°29' E 000°07'0 0.0
2016-Apr-28 21:32N 49°29' E 000°07'0 0.0
2016-Apr-28 20:32N 49°29' E 000°07'0 0.0
2016-Apr-28 19:32N 49°29' E 000°07'0 0.0
2016-Apr-28 18:32N 49°29' E 000°07'0 0.0
2016-Apr-28 17:32N 49°29' E 000°07'0 0.0
2016-Apr-28 16:32N 49°29' E 000°07'0 0.0
2016-Apr-28 15:32N 49°29' E 000°07'0 0.0
2016-Apr-28 14:32N 49°29' E 000°07'0 0.0
2016-Apr-28 13:32N 49°29' E 000°07'0 0.0
2016-Apr-28 12:32N 49°29' E 000°07'0 0.0
2016-Apr-28 11:32N 49°29' E 000°07'0 0.0
2016-Apr-28 10:32N 49°29' E 000°07'0 0.0
2016-Apr-28 09:32N 49°29' E 000°07'0 0.0
2016-Apr-28 08:32N 49°29' E 000°07'0 0.0
2016-Apr-28 07:32N 49°29' E 000°07'0 0.0
2016-Apr-28 06:32N 49°29' E 000°07'0 0.0
2016-Apr-28 05:31N 49°29' E 000°07'0 0.0
2016-Apr-28 04:28N 49°29' E 000°07'0 0.0
2016-Apr-28 03:31N 49°29' E 000°07'0 0.0
2016-Apr-28 02:31N 49°29' E 000°07'0 0.0
2016-Apr-28 01:25N 49°29' E 000°07'0 0.0
2016-Apr-28 00:31N 49°29' E 000°07'0 0.0
2016-Apr-27 23:31N 49°29' E 000°07'0 0.0
2016-Apr-27 22:31N 49°29' E 000°07'0 0.0
2016-Apr-27 21:31N 49°29' E 000°07'0 0.0
2016-Apr-27 20:31N 49°29' E 000°07'0 0.0
2016-Apr-27 19:31N 49°29' E 000°07'0 0.0
2016-Apr-27 18:31N 49°29' E 000°07'0 0.0
2016-Apr-27 17:31N 49°29' E 000°07'0 0.0
2016-Apr-27 16:31N 49°29' E 000°07'0 0.0
2016-Apr-27 15:31N 49°29' E 000°07'0 0.0
2016-Apr-27 14:31N 49°29' E 000°07'0 0.0
2016-Apr-27 13:31N 49°29' E 000°07'0 0.0
2016-Apr-27 12:31N 49°29' E 000°07'0 0.0
2016-Apr-27 11:31N 49°29' E 000°07'1 1.1
2016-Apr-27 10:33N 49°29' E 000°06'3 3.1
2016-Apr-27 09:33N 49°26' E 000°07'8 7.7
2016-Apr-27 08:33N 49°26' E 000°19'0 0.0
2016-Apr-27 07:33N 49°26' E 000°19'0 0.0
2016-Apr-27 06:33N 49°26' E 000°19'0 0.0
2016-Apr-27 05:33N 49°26' E 000°19'0 0.1
2016-Apr-27 04:33N 49°26' E 000°19'0 0.1
2016-Apr-27 03:33N 49°26' E 000°19'0 0.0
2016-Apr-27 02:33N 49°26' E 000°19'0 0.0
2016-Apr-27 01:33N 49°26' E 000°19'0 0.0
2016-Apr-27 00:33N 49°26' E 000°19'0 0.0
2016-Apr-26 23:33N 49°26' E 000°19'0 0.0
2016-Apr-26 22:30N 49°26' E 000°19'0 0.0
2016-Apr-26 21:33N 49°26' E 000°19'0 0.1
2016-Apr-26 20:33N 49°26' E 000°19'0 0.0
2016-Apr-26 19:33N 49°26' E 000°19'4 4.0
2016-Apr-26 18:33N 49°27' E 000°25'2 2.2
2016-Apr-26 17:32N 49°28' E 000°28'0 0.0
2016-Apr-26 16:32N 49°28' E 000°28'0 0.0
2016-Apr-26 15:32N 49°28' E 000°28'0 0.0
2016-Apr-26 14:32N 49°28' E 000°28'0 0.0
2016-Apr-26 13:29N 49°28' E 000°28'0 0.0
2016-Apr-26 12:29N 49°28' E 000°28'0 0.0
2016-Apr-26 11:29N 49°28' E 000°28'0 0.0
2016-Apr-26 10:32N 49°28' E 000°28'0 0.0
2016-Apr-26 09:32N 49°28' E 000°28'0 0.0
2016-Apr-26 08:29N 49°28' E 000°28'0 0.0
2016-Apr-26 07:32N 49°28' E 000°28'0 0.0
2016-Apr-26 06:29N 49°28' E 000°28'0 0.0
2016-Apr-26 05:32N 49°28' E 000°28'0 0.0
2016-Apr-26 04:29N 49°28' E 000°28'0 0.0
2016-Apr-26 03:32N 49°28' E 000°28'0 0.0
2016-Apr-26 02:32N 49°28' E 000°28'0 0.0
2016-Apr-26 01:32N 49°28' E 000°28'0 0.0
2016-Apr-26 00:32N 49°28' E 000°28'0 0.0
2016-Apr-25 23:26N 49°28' E 000°28'0 0.0
2016-Apr-25 22:32N 49°28' E 000°28'0 0.0
2016-Apr-25 21:32N 49°28' E 000°28'0 0.0
2016-Apr-25 20:32N 49°28' E 000°28'0 0.0
2016-Apr-25 19:32N 49°28' E 000°28'8 0.6
2016-Apr-25 07:13N 49°28' E 000°40'4 5.8
2016-Apr-25 06:32N 49°26' E 000°35'5 5.6
2016-Apr-25 05:34N 49°28' E 000°28'6 5.6
2016-Apr-25 04:31N 49°26' E 000°19'0 0.0
2016-Apr-25 03:31N 49°26' E 000°19'0 0.1
2016-Apr-25 02:31N 49°26' E 000°19'0 0.0
2016-Apr-25 01:31N 49°26' E 000°19'0 0.1
2016-Apr-25 00:31N 49°26' E 000°19'0 0.0
2016-Apr-24 23:31N 49°26' E 000°19'0 0.0
2016-Apr-24 22:31N 49°26' E 000°19'0 0.0
2016-Apr-24 21:31N 49°26' E 000°19'0 0.0
2016-Apr-24 20:31N 49°26' E 000°19'0 0.1
2016-Apr-24 19:31N 49°26' E 000°19'0 0.0
2016-Apr-24 18:31N 49°26' E 000°19'0 0.0
2016-Apr-24 17:31N 49°26' E 000°19'0 0.0
2016-Apr-24 16:31N 49°26' E 000°19'0 0.0
2016-Apr-24 15:31N 49°26' E 000°19'0 0.0
2016-Apr-24 14:31N 49°26' E 000°19'0 0.0
2016-Apr-24 13:31N 49°26' E 000°19'0 0.1
2016-Apr-24 12:31N 49°26' E 000°19'0 0.0
2016-Apr-24 11:31N 49°26' E 000°19'0 0.0
2016-Apr-24 10:31N 49°26' E 000°19'0 0.0
2016-Apr-24 09:31N 49°26' E 000°19'0 0.0
2016-Apr-24 08:31N 49°26' E 000°19'0 0.1
2016-Apr-24 07:31N 49°26' E 000°19'0 0.0
2016-Apr-24 06:31N 49°26' E 000°19'0 0.0
2016-Apr-24 05:31N 49°26' E 000°19'0 0.0
2016-Apr-24 04:31N 49°26' E 000°19'0 0.0
2016-Apr-24 03:31N 49°26' E 000°19'0 0.0
2016-Apr-24 02:31N 49°26' E 000°19'0 0.0
2016-Apr-24 01:31N 49°26' E 000°19'0 0.1
2016-Apr-24 00:31N 49°26' E 000°19'0 0.0
2016-Apr-23 23:31N 49°26' E 000°19'0 0.0
2016-Apr-23 22:31N 49°26' E 000°19'0 0.0
2016-Apr-23 21:28N 49°26' E 000°19'0 0.0
2016-Apr-23 20:31N 49°26' E 000°19'1 1.3
2016-Apr-23 19:34N 49°26' E 000°18'2 2.3
2016-Apr-23 18:31N 49°26' E 000°14'0 0.0
2016-Apr-23 17:31N 49°26' E 000°14'0 0.0
2016-Apr-23 16:31N 49°26' E 000°14'0 0.0
2016-Apr-23 15:31N 49°26' E 000°14'0 0.0
2016-Apr-23 14:31N 49°26' E 000°14'0 0.0
2016-Apr-23 13:31N 49°26' E 000°14'2 2.4
2016-Apr-23 12:32N 49°26' E 000°10'6 6.5
2016-Apr-23 11:33N 49°29' E 000°02'0 0.0
2016-Apr-23 10:31N 49°29' E 000°02'0 0.0
2016-Apr-23 09:33N 49°29' E 000°02'0 0.0
2016-Apr-23 08:33N 49°29' E 000°02'0 0.0
2016-Apr-23 07:33N 49°29' E 000°02'0 0.0
2016-Apr-23 06:33N 49°29' E 000°02'0 0.0
2016-Apr-23 05:33N 49°29' E 000°02'0 0.0
2016-Apr-23 04:33N 49°29' E 000°02'0 0.2
2016-Apr-23 03:31N 49°29' E 000°01'0 0.2
2016-Apr-23 02:31N 49°29' E 000°02'0 0.0
2016-Apr-23 01:33N 49°29' E 000°02'0 0.0
2016-Apr-23 00:31N 49°29' E 000°02'0 0.0
2016-Apr-22 23:33N 49°29' E 000°02'0 0.1
2016-Apr-22 22:32N 49°29' E 000°02'0 0.0
2016-Apr-22 21:33N 49°29' E 000°02'3 3.4
2016-Apr-22 20:33N 49°29' E 000°07'0 0.5
2016-Apr-22 19:33N 49°29' E 000°07'0 0.0
2016-Apr-22 18:33N 49°29' E 000°07'0 0.0
2016-Apr-22 17:33N 49°29' E 000°07'0 0.0
2016-Apr-22 16:33N 49°29' E 000°07'0 0.0
2016-Apr-22 15:33N 49°29' E 000°07'0 0.0
2016-Apr-22 14:33N 49°29' E 000°07'0 0.0
2016-Apr-22 13:33N 49°29' E 000°07'0 0.0
2016-Apr-22 12:33N 49°29' E 000°07'0 0.0
2016-Apr-22 11:33N 49°29' E 000°07'0 0.0
2016-Apr-22 10:33N 49°29' E 000°07'0 0.0
2016-Apr-22 09:33N 49°29' E 000°07'2 2.0
2016-Apr-22 08:33N 49°29' E 000°04'1110.5
2016-Apr-22 07:33N 49°32' W 000°11'10 9.5
2016-Apr-22 06:33N 49°35' W 000°26'8 8.0
2016-Apr-22 05:33N 49°37' W 000°37'156 8.5
2016-Apr-21 11:14N 48°43' W 004°22'8 8.6
2016-Apr-21 10:21N 48°41' W 004°33'7 8.3
2016-Apr-21 09:28N 48°38' W 004°42'7 8.1
2016-Apr-21 08:33N 48°32' W 004°49'9 9.2
2016-Apr-21 07:33N 48°23' W 004°49'7 7.0
2016-Apr-21 06:33N 48°20' W 004°39'8 7.5
2016-Apr-21 05:33N 48°23' W 004°29'0 0.0
2016-Apr-21 04:34N 48°23' W 004°29'0 0.0
2016-Apr-21 03:34N 48°23' W 004°29'0 0.0
2016-Apr-21 02:33N 48°23' W 004°29'0 0.0
2016-Apr-21 01:33N 48°23' W 004°29'0 0.0
2016-Apr-21 00:34N 48°23' W 004°29'0 0.0
2016-Apr-20 23:34N 48°23' W 004°29'0 0.0
2016-Apr-20 22:33N 48°23' W 004°29'0 0.0
2016-Apr-20 21:34N 48°23' W 004°29'0 0.0
2016-Apr-20 20:33N 48°23' W 004°29'0 0.0
2016-Apr-20 19:33N 48°23' W 004°29'0 0.0
2016-Apr-20 18:33N 48°23' W 004°29'0 0.0
2016-Apr-20 17:33N 48°23' W 004°29'0 0.0
2016-Apr-20 16:31N 48°23' W 004°29'0 0.0
2016-Apr-20 15:34N 48°23' W 004°29'0 0.0
2016-Apr-20 14:33N 48°23' W 004°29'0 0.0
2016-Apr-20 13:34N 48°23' W 004°29'0 0.1
2016-Apr-20 12:33N 48°23' W 004°29'0 0.0
2016-Apr-20 11:33N 48°23' W 004°29'0 0.0
2016-Apr-20 10:33N 48°23' W 004°29'0 0.0
2016-Apr-20 09:33N 48°23' W 004°29'0 0.0
2016-Apr-20 08:34N 48°23' W 004°29'  
Track history (hours):
 
Tides and Currents Weather Stations Pressure Air Temp Water Temp Dewpoint Dewpoint Depression Visibility Wind Speed Wind Dir Waves Ship Positions

Cotes De La Manche

Last reported at 2016-Apr-30 08:33 UTC. Time now 2016-Apr-30 09:02 UTC.
Position N 49°29' E 000°02'.

Length 25 m; draft 3.7 m.

Type: Other ship. MMSI: 227091000.

Date/timePositionNaut miles runAvg speedWind from/ knotsBaromVisibWave heightAir tempDewpointWater temp
2016-Apr-30 08:33N 49°29' E 000°02'0 0.0
2016-Apr-30 07:33N 49°29' E 000°02'0 0.0
2016-Apr-30 06:33N 49°29' E 000°02'0 0.0
2016-Apr-30 05:33N 49°29' E 000°02'0 0.0
2016-Apr-30 04:33N 49°29' E 000°02'0 0.0
2016-Apr-30 03:33N 49°29' E 000°02'0 0.0
2016-Apr-30 02:33N 49°29' E 000°02'0 0.0
2016-Apr-30 01:33N 49°29' E 000°02'0 0.0
2016-Apr-30 00:33N 49°29' E 000°02'0 0.0
2016-Apr-29 23:33N 49°29' E 000°02'0 0.0
2016-Apr-29 22:34N 49°29' E 000°02'0 0.0
2016-Apr-29 21:33N 49°29' E 000°02'0 0.1
2016-Apr-29 20:33N 49°29' E 000°02'0 0.0
2016-Apr-29 19:33N 49°29' E 000°02'0 0.0
2016-Apr-29 18:33N 49°29' E 000°02'0 0.0
2016-Apr-29 17:33N 49°29' E 000°02'3 2.8
2016-Apr-29 16:34N 49°29' E 000°06'3 2.9
2016-Apr-29 15:34N 49°29' E 000°10'0 0.5
2016-Apr-29 14:34N 49°29' E 000°11'1 0.6
2016-Apr-29 13:33N 49°29' E 000°11'2 2.0
2016-Apr-29 12:33N 49°29' E 000°08'1 0.8
2016-Apr-29 11:32N 49°29' E 000°07'0 0.0
2016-Apr-29 10:32N 49°29' E 000°07'0 0.0
2016-Apr-29 09:32N 49°29' E 000°07'0 0.0
2016-Apr-29 08:32N 49°29' E 000°07'0 0.0
2016-Apr-29 07:32N 49°29' E 000°07'0 0.0
2016-Apr-29 06:32N 49°29' E 000°07'0 0.0
2016-Apr-29 05:32N 49°29' E 000°07'0 0.0
2016-Apr-29 04:32N 49°29' E 000°07'0 0.0
2016-Apr-29 03:32N 49°29' E 000°07'0 0.0
2016-Apr-29 02:32N 49°29' E 000°07'0 0.0
2016-Apr-29 01:32N 49°29' E 000°07'0 0.0
2016-Apr-29 00:32N 49°29' E 000°07'0 0.0
2016-Apr-28 23:32N 49°29' E 000°07'0 0.0
2016-Apr-28 22:32N 49°29' E 000°07'0 0.0
2016-Apr-28 21:32N 49°29' E 000°07'0 0.0
2016-Apr-28 20:32N 49°29' E 000°07'0 0.0
2016-Apr-28 19:32N 49°29' E 000°07'0 0.0
2016-Apr-28 18:32N 49°29' E 000°07'0 0.0
2016-Apr-28 17:32N 49°29' E 000°07'0 0.0
2016-Apr-28 16:32N 49°29' E 000°07'0 0.0
2016-Apr-28 15:32N 49°29' E 000°07'0 0.0
2016-Apr-28 14:32N 49°29' E 000°07'0 0.0
2016-Apr-28 13:32N 49°29' E 000°07'0 0.0
2016-Apr-28 12:32N 49°29' E 000°07'0 0.0
2016-Apr-28 11:32N 49°29' E 000°07'0 0.0
2016-Apr-28 10:32N 49°29' E 000°07'0 0.0
2016-Apr-28 09:32N 49°29' E 000°07'0 0.0
2016-Apr-28 08:32N 49°29' E 000°07'0 0.0
2016-Apr-28 07:32N 49°29' E 000°07'0 0.0
2016-Apr-28 06:32N 49°29' E 000°07'0 0.0
2016-Apr-28 05:31N 49°29' E 000°07'0 0.0
2016-Apr-28 04:28N 49°29' E 000°07'0 0.0
2016-Apr-28 03:31N 49°29' E 000°07'0 0.0
2016-Apr-28 02:31N 49°29' E 000°07'0 0.0
2016-Apr-28 01:25N 49°29' E 000°07'0 0.0
2016-Apr-28 00:31N 49°29' E 000°07'0 0.0
2016-Apr-27 23:31N 49°29' E 000°07'0 0.0
2016-Apr-27 22:31N 49°29' E 000°07'0 0.0
2016-Apr-27 21:31N 49°29' E 000°07'0 0.0
2016-Apr-27 20:31N 49°29' E 000°07'0 0.0
2016-Apr-27 19:31N 49°29' E 000°07'0 0.0
2016-Apr-27 18:31N 49°29' E 000°07'0 0.0
2016-Apr-27 17:31N 49°29' E 000°07'0 0.0
2016-Apr-27 16:31N 49°29' E 000°07'0 0.0
2016-Apr-27 15:31N 49°29' E 000°07'0 0.0
2016-Apr-27 14:31N 49°29' E 000°07'0 0.0
2016-Apr-27 13:31N 49°29' E 000°07'0 0.0
2016-Apr-27 12:31N 49°29' E 000°07'0 0.0
2016-Apr-27 11:31N 49°29' E 000°07'1 1.1
2016-Apr-27 10:33N 49°29' E 000°06'3 3.1
2016-Apr-27 09:33N 49°26' E 000°07'8 7.7
2016-Apr-27 08:33N 49°26' E 000°19'0 0.0
2016-Apr-27 07:33N 49°26' E 000°19'0 0.0
2016-Apr-27 06:33N 49°26' E 000°19'0 0.0
2016-Apr-27 05:33N 49°26' E 000°19'0 0.1
2016-Apr-27 04:33N 49°26' E 000°19'0 0.1
2016-Apr-27 03:33N 49°26' E 000°19'0 0.0
2016-Apr-27 02:33N 49°26' E 000°19'0 0.0
2016-Apr-27 01:33N 49°26' E 000°19'0 0.0
2016-Apr-27 00:33N 49°26' E 000°19'0 0.0
2016-Apr-26 23:33N 49°26' E 000°19'0 0.0
2016-Apr-26 22:30N 49°26' E 000°19'0 0.0
2016-Apr-26 21:33N 49°26' E 000°19'0 0.1
2016-Apr-26 20:33N 49°26' E 000°19'0 0.0
2016-Apr-26 19:33N 49°26' E 000°19'4 4.0
2016-Apr-26 18:33N 49°27' E 000°25'2 2.2
2016-Apr-26 17:32N 49°28' E 000°28'0 0.0
2016-Apr-26 16:32N 49°28' E 000°28'0 0.0
2016-Apr-26 15:32N 49°28' E 000°28'0 0.0
2016-Apr-26 14:32N 49°28' E 000°28'0 0.0
2016-Apr-26 13:29N 49°28' E 000°28'0 0.0
2016-Apr-26 12:29N 49°28' E 000°28'0 0.0
2016-Apr-26 11:29N 49°28' E 000°28'0 0.0
2016-Apr-26 10:32N 49°28' E 000°28'0 0.0
2016-Apr-26 09:32N 49°28' E 000°28'0 0.0
2016-Apr-26 08:29N 49°28' E 000°28'0 0.0
2016-Apr-26 07:32N 49°28' E 000°28'0 0.0
2016-Apr-26 06:29N 49°28' E 000°28'0 0.0
2016-Apr-26 05:32N 49°28' E 000°28'0 0.0
2016-Apr-26 04:29N 49°28' E 000°28'0 0.0
2016-Apr-26 03:32N 49°28' E 000°28'0 0.0
2016-Apr-26 02:32N 49°28' E 000°28'0 0.0
2016-Apr-26 01:32N 49°28' E 000°28'0 0.0
2016-Apr-26 00:32N 49°28' E 000°28'0 0.0
2016-Apr-25 23:26N 49°28' E 000°28'0 0.0
2016-Apr-25 22:32N 49°28' E 000°28'0 0.0
2016-Apr-25 21:32N 49°28' E 000°28'0 0.0
2016-Apr-25 20:32N 49°28' E 000°28'0 0.0
2016-Apr-25 19:32N 49°28' E 000°28'8 0.6
2016-Apr-25 07:13N 49°28' E 000°40'4 5.8
2016-Apr-25 06:32N 49°26' E 000°35'5 5.6
2016-Apr-25 05:34N 49°28' E 000°28'6 5.6
2016-Apr-25 04:31N 49°26' E 000°19'0 0.0
2016-Apr-25 03:31N 49°26' E 000°19'0 0.1
2016-Apr-25 02:31N 49°26' E 000°19'0 0.0
2016-Apr-25 01:31N 49°26' E 000°19'0 0.1
2016-Apr-25 00:31N 49°26' E 000°19'0 0.0
2016-Apr-24 23:31N 49°26' E 000°19'0 0.0
2016-Apr-24 22:31N 49°26' E 000°19'0 0.0
2016-Apr-24 21:31N 49°26' E 000°19'0 0.0
2016-Apr-24 20:31N 49°26' E 000°19'0 0.1
2016-Apr-24 19:31N 49°26' E 000°19'0 0.0
2016-Apr-24 18:31N 49°26' E 000°19'0 0.0
2016-Apr-24 17:31N 49°26' E 000°19'0 0.0
2016-Apr-24 16:31N 49°26' E 000°19'0 0.0
2016-Apr-24 15:31N 49°26' E 000°19'0 0.0
2016-Apr-24 14:31N 49°26' E 000°19'0 0.0
2016-Apr-24 13:31N 49°26' E 000°19'0 0.1
2016-Apr-24 12:31N 49°26' E 000°19'0 0.0
2016-Apr-24 11:31N 49°26' E 000°19'0 0.0
2016-Apr-24 10:31N 49°26' E 000°19'0 0.0
2016-Apr-24 09:31N 49°26' E 000°19'0 0.0
2016-Apr-24 08:31N 49°26' E 000°19'0 0.1
2016-Apr-24 07:31N 49°26' E 000°19'0 0.0
2016-Apr-24 06:31N 49°26' E 000°19'0 0.0
2016-Apr-24 05:31N 49°26' E 000°19'0 0.0
2016-Apr-24 04:31N 49°26' E 000°19'0 0.0
2016-Apr-24 03:31N 49°26' E 000°19'0 0.0
2016-Apr-24 02:31N 49°26' E 000°19'0 0.0
2016-Apr-24 01:31N 49°26' E 000°19'0 0.1
2016-Apr-24 00:31N 49°26' E 000°19'0 0.0
2016-Apr-23 23:31N 49°26' E 000°19'0 0.0
2016-Apr-23 22:31N 49°26' E 000°19'0 0.0
2016-Apr-23 21:28N 49°26' E 000°19'0 0.0
2016-Apr-23 20:31N 49°26' E 000°19'1 1.3
2016-Apr-23 19:34N 49°26' E 000°18'2 2.3
2016-Apr-23 18:31N 49°26' E 000°14'0 0.0
2016-Apr-23 17:31N 49°26' E 000°14'0 0.0
2016-Apr-23 16:31N 49°26' E 000°14'0 0.0
2016-Apr-23 15:31N 49°26' E 000°14'0 0.0
2016-Apr-23 14:31N 49°26' E 000°14'0 0.0
2016-Apr-23 13:31N 49°26' E 000°14'2 2.4
2016-Apr-23 12:32N 49°26' E 000°10'6 6.5
2016-Apr-23 11:33N 49°29' E 000°02'0 0.0
2016-Apr-23 10:31N 49°29' E 000°02'0 0.0
2016-Apr-23 09:33N 49°29' E 000°02'0 0.0
2016-Apr-23 08:33N 49°29' E 000°02'0 0.0
2016-Apr-23 07:33N 49°29' E 000°02'0 0.0
2016-Apr-23 06:33N 49°29' E 000°02'0 0.0
2016-Apr-23 05:33N 49°29' E 000°02'0 0.0
2016-Apr-23 04:33N 49°29' E 000°02'0 0.2
2016-Apr-23 03:31N 49°29' E 000°01'0 0.2
2016-Apr-23 02:31N 49°29' E 000°02'0 0.0
2016-Apr-23 01:33N 49°29' E 000°02'0 0.0
2016-Apr-23 00:31N 49°29' E 000°02'0 0.0
2016-Apr-22 23:33N 49°29' E 000°02'0 0.1
2016-Apr-22 22:32N 49°29' E 000°02'0 0.0
2016-Apr-22 21:33N 49°29' E 000°02'3 3.4
2016-Apr-22 20:33N 49°29' E 000°07'0 0.5
2016-Apr-22 19:33N 49°29' E 000°07'0 0.0
2016-Apr-22 18:33N 49°29' E 000°07'0 0.0
2016-Apr-22 17:33N 49°29' E 000°07'0 0.0
2016-Apr-22 16:33N 49°29' E 000°07'0 0.0
2016-Apr-22 15:33N 49°29' E 000°07'0 0.0
2016-Apr-22 14:33N 49°29' E 000°07'0 0.0
2016-Apr-22 13:33N 49°29' E 000°07'0 0.0
2016-Apr-22 12:33N 49°29' E 000°07'0 0.0
2016-Apr-22 11:33N 49°29' E 000°07'0 0.0
2016-Apr-22 10:33N 49°29' E 000°07'0 0.0
2016-Apr-22 09:33N 49°29' E 000°07'2 2.0
2016-Apr-22 08:33N 49°29' E 000°04'1110.5
2016-Apr-22 07:33N 49°32' W 000°11'10 9.5
2016-Apr-22 06:33N 49°35' W 000°26'8 8.0
2016-Apr-22 05:33N 49°37' W 000°37'156 8.5
2016-Apr-21 11:14N 48°43' W 004°22'8 8.6
2016-Apr-21 10:21N 48°41' W 004°33'7 8.3
2016-Apr-21 09:28N 48°38' W 004°42'7 8.1
2016-Apr-21 08:33N 48°32' W 004°49'9 9.2
2016-Apr-21 07:33N 48°23' W 004°49'7 7.0
2016-Apr-21 06:33N 48°20' W 004°39'8 7.5
2016-Apr-21 05:33N 48°23' W 004°29'0 0.0
2016-Apr-21 04:34N 48°23' W 004°29'0 0.0
2016-Apr-21 03:34N 48°23' W 004°29'0 0.0
2016-Apr-21 02:33N 48°23' W 004°29'0 0.0
2016-Apr-21 01:33N 48°23' W 004°29'0 0.0
2016-Apr-21 00:34N 48°23' W 004°29'0 0.0
2016-Apr-20 23:34N 48°23' W 004°29'0 0.0
2016-Apr-20 22:33N 48°23' W 004°29'0 0.0
2016-Apr-20 21:34N 48°23' W 004°29'0 0.0
2016-Apr-20 20:33N 48°23' W 004°29'0 0.0
2016-Apr-20 19:33N 48°23' W 004°29'0 0.0
2016-Apr-20 18:33N 48°23' W 004°29'0 0.0
2016-Apr-20 17:33N 48°23' W 004°29'0 0.0
2016-Apr-20 16:31N 48°23' W 004°29'0 0.0
2016-Apr-20 15:34N 48°23' W 004°29'0 0.0
2016-Apr-20 14:33N 48°23' W 004°29'0 0.0
2016-Apr-20 13:34N 48°23' W 004°29'0 0.1
2016-Apr-20 12:33N 48°23' W 004°29'0 0.0
2016-Apr-20 11:33N 48°23' W 004°29'0 0.0
2016-Apr-20 10:33N 48°23' W 004°29'0 0.0
2016-Apr-20 09:33N 48°23' W 004°29'0 0.0
2016-Apr-20 08:34N 48°23' W 004°29'  

Dump ship's entire track history